sensor_id;sensor_type;location;lat;lon;timestamp;P1;durP1;ratioP1;P2;durP2;ratioP2
58842;SDS011;44614;54.356;10.100;2022-12-07T00:02:21;10.90;;;5.70;;
58842;SDS011;44614;54.356;10.100;2022-12-07T00:04:48;13.05;;;6.35;;
58842;SDS011;44614;54.356;10.100;2022-12-07T00:07:14;10.73;;;5.63;;
58842;SDS011;44614;54.356;10.100;2022-12-07T00:09:39;11.57;;;5.67;;
58842;SDS011;44614;54.356;10.100;2022-12-07T00:12:06;12.93;;;5.60;;
58842;SDS011;44614;54.356;10.100;2022-12-07T00:14:33;11.47;;;5.47;;
58842;SDS011;44614;54.356;10.100;2022-12-07T00:16:58;12.75;;;5.75;;
58842;SDS011;44614;54.356;10.100;2022-12-07T00:19:24;13.75;;;5.93;;
58842;SDS011;44614;54.356;10.100;2022-12-07T00:21:49;11.50;;;4.97;;
58842;SDS011;44614;54.356;10.100;2022-12-07T00:24:14;10.20;;;4.55;;
58842;SDS011;44614;54.356;10.100;2022-12-07T00:26:40;12.48;;;5.57;;
58842;SDS011;44614;54.356;10.100;2022-12-07T00:29:08;10.57;;;5.07;;
58842;SDS011;44614;54.356;10.100;2022-12-07T00:31:38;11.65;;;5.90;;
58842;SDS011;44614;54.356;10.100;2022-12-07T00:34:04;9.55;;;5.22;;
58842;SDS011;44614;54.356;10.100;2022-12-07T00:36:30;8.18;;;4.45;;
58842;SDS011;44614;54.356;10.100;2022-12-07T00:38:57;9.38;;;5.45;;
58842;SDS011;44614;54.356;10.100;2022-12-07T00:41:24;13.63;;;6.07;;
58842;SDS011;44614;54.356;10.100;2022-12-07T00:46:16;9.93;;;5.75;;
58842;SDS011;44614;54.356;10.100;2022-12-07T00:48:42;11.23;;;5.32;;
58842;SDS011;44614;54.356;10.100;2022-12-07T00:51:09;11.05;;;5.88;;
58842;SDS011;44614;54.356;10.100;2022-12-07T00:53:36;9.95;;;5.10;;
58842;SDS011;44614;54.356;10.100;2022-12-07T00:56:09;10.52;;;5.40;;
58842;SDS011;44614;54.356;10.100;2022-12-07T00:58:39;14.63;;;5.77;;
58842;SDS011;44614;54.356;10.100;2022-12-07T01:01:05;13.80;;;6.50;;
58842;SDS011;44614;54.356;10.100;2022-12-07T01:03:31;12.98;;;5.47;;
58842;SDS011;44614;54.356;10.100;2022-12-07T01:05:57;11.38;;;6.05;;
58842;SDS011;44614;54.356;10.100;2022-12-07T01:08:23;11.15;;;5.70;;
58842;SDS011;44614;54.356;10.100;2022-12-07T01:10:49;10.73;;;5.32;;
58842;SDS011;44614;54.356;10.100;2022-12-07T01:13:22;13.18;;;6.05;;
58842;SDS011;44614;54.356;10.100;2022-12-07T01:15:47;15.20;;;6.13;;
58842;SDS011;44614;54.356;10.100;2022-12-07T01:18:12;14.50;;;5.97;;
58842;SDS011;44614;54.356;10.100;2022-12-07T01:20:38;12.65;;;6.00;;
58842;SDS011;44614;54.356;10.100;2022-12-07T01:23:03;12.70;;;5.88;;
58842;SDS011;44614;54.356;10.100;2022-12-07T01:25:29;14.20;;;6.38;;
58842;SDS011;44614;54.356;10.100;2022-12-07T01:27:54;16.10;;;6.80;;
58842;SDS011;44614;54.356;10.100;2022-12-07T01:30:19;9.77;;;4.88;;
58842;SDS011;44614;54.356;10.100;2022-12-07T01:32:45;11.45;;;5.93;;
58842;SDS011;44614;54.356;10.100;2022-12-07T01:35:10;11.85;;;5.53;;
58842;SDS011;44614;54.356;10.100;2022-12-07T01:37:36;10.27;;;5.00;;
58842;SDS011;44614;54.356;10.100;2022-12-07T01:40:03;10.32;;;4.32;;
58842;SDS011;44614;54.356;10.100;2022-12-07T01:42:31;8.98;;;4.97;;
58842;SDS011;44614;54.356;10.100;2022-12-07T01:48:00;10.75;;;5.82;;
58842;SDS011;44614;54.356;10.100;2022-12-07T01:50:26;13.93;;;5.65;;
58842;SDS011;44614;54.356;10.100;2022-12-07T01:52:56;12.63;;;4.18;;
58842;SDS011;44614;54.356;10.100;2022-12-07T01:55:24;9.70;;;4.85;;
58842;SDS011;44614;54.356;10.100;2022-12-07T01:57:50;10.23;;;4.93;;
58842;SDS011;44614;54.356;10.100;2022-12-07T02:00:18;9.75;;;4.57;;
58842;SDS011;44614;54.356;10.100;2022-12-07T02:02:58;10.88;;;5.13;;
58842;SDS011;44614;54.356;10.100;2022-12-07T02:05:29;7.97;;;4.22;;
58842;SDS011;44614;54.356;10.100;2022-12-07T02:07:55;11.93;;;4.75;;
58842;SDS011;44614;54.356;10.100;2022-12-07T02:10:23;10.77;;;5.05;;
58842;SDS011;44614;54.356;10.100;2022-12-07T02:12:52;17.95;;;6.90;;
58842;SDS011;44614;54.356;10.100;2022-12-07T02:15:22;19.83;;;8.70;;
58842;SDS011;44614;54.356;10.100;2022-12-07T02:18:00;19.05;;;8.10;;
58842;SDS011;44614;54.356;10.100;2022-12-07T02:26:32;13.23;;;6.53;;
58842;SDS011;44614;54.356;10.100;2022-12-07T02:29:10;19.70;;;8.55;;
58842;SDS011;44614;54.356;10.100;2022-12-07T02:31:49;15.45;;;6.93;;
58842;SDS011;44614;54.356;10.100;2022-12-07T02:34:26;10.73;;;6.38;;
58842;SDS011;44614;54.356;10.100;2022-12-07T02:36:57;14.70;;;6.97;;
58842;SDS011;44614;54.356;10.100;2022-12-07T02:39:34;17.33;;;6.93;;
58842;SDS011;44614;54.356;10.100;2022-12-07T02:42:09;13.15;;;6.22;;
58842;SDS011;44614;54.356;10.100;2022-12-07T02:44:42;15.50;;;7.13;;
58842;SDS011;44614;54.356;10.100;2022-12-07T02:47:10;16.50;;;8.00;;
58842;SDS011;44614;54.356;10.100;2022-12-07T02:49:39;14.85;;;6.43;;
58842;SDS011;44614;54.356;10.100;2022-12-07T02:52:05;14.32;;;6.75;;
58842;SDS011;44614;54.356;10.100;2022-12-07T02:54:30;17.13;;;6.88;;
58842;SDS011;44614;54.356;10.100;2022-12-07T03:16:20;14.18;;;6.35;;
58842;SDS011;44614;54.356;10.100;2022-12-07T03:21:40;13.60;;;7.53;;
58842;SDS011;44614;54.356;10.100;2022-12-07T03:24:15;14.25;;;6.50;;
58842;SDS011;44614;54.356;10.100;2022-12-07T03:26:45;14.02;;;6.78;;
58842;SDS011;44614;54.356;10.100;2022-12-07T03:29:59;14.70;;;7.13;;
58842;SDS011;44614;54.356;10.100;2022-12-07T03:32:09;12.93;;;7.28;;
58842;SDS011;44614;54.356;10.100;2022-12-07T03:34:43;14.10;;;6.90;;
58842;SDS011;44614;54.356;10.100;2022-12-07T03:37:57;17.27;;;6.63;;
58842;SDS011;44614;54.356;10.100;2022-12-07T03:40:17;14.52;;;7.03;;
58842;SDS011;44614;54.356;10.100;2022-12-07T03:42:54;13.75;;;6.63;;
58842;SDS011;44614;54.356;10.100;2022-12-07T03:45:22;12.98;;;7.15;;
58842;SDS011;44614;54.356;10.100;2022-12-07T03:48:00;15.88;;;7.32;;
58842;SDS011;44614;54.356;10.100;2022-12-07T03:50:38;14.50;;;6.57;;
58842;SDS011;44614;54.356;10.100;2022-12-07T03:53:34;12.90;;;5.25;;
58842;SDS011;44614;54.356;10.100;2022-12-07T03:56:06;15.82;;;7.00;;
58842;SDS011;44614;54.356;10.100;2022-12-07T03:58:33;17.65;;;7.15;;
58842;SDS011;44614;54.356;10.100;2022-12-07T04:00:59;11.30;;;6.10;;
58842;SDS011;44614;54.356;10.100;2022-12-07T04:03:25;10.75;;;5.13;;
58842;SDS011;44614;54.356;10.100;2022-12-07T04:05:50;13.75;;;5.55;;
58842;SDS011;44614;54.356;10.100;2022-12-07T04:08:15;16.73;;;6.75;;
58842;SDS011;44614;54.356;10.100;2022-12-07T04:10:40;18.90;;;7.78;;
58842;SDS011;44614;54.356;10.100;2022-12-07T04:13:06;12.23;;;5.72;;
58842;SDS011;44614;54.356;10.100;2022-12-07T04:15:31;13.93;;;6.78;;
58842;SDS011;44614;54.356;10.100;2022-12-07T04:17:56;10.65;;;5.47;;
58842;SDS011;44614;54.356;10.100;2022-12-07T04:20:22;15.15;;;7.22;;
58842;SDS011;44614;54.356;10.100;2022-12-07T04:22:47;16.17;;;7.43;;
58842;SDS011;44614;54.356;10.100;2022-12-07T04:25:12;14.13;;;7.35;;
58842;SDS011;44614;54.356;10.100;2022-12-07T04:27:38;17.17;;;7.05;;
58842;SDS011;44614;54.356;10.100;2022-12-07T04:30:03;20.03;;;7.17;;
58842;SDS011;44614;54.356;10.100;2022-12-07T04:32:29;14.38;;;6.53;;
58842;SDS011;44614;54.356;10.100;2022-12-07T04:34:54;13.77;;;6.65;;
58842;SDS011;44614;54.356;10.100;2022-12-07T04:37:20;17.35;;;7.35;;
58842;SDS011;44614;54.356;10.100;2022-12-07T04:39:45;11.88;;;6.20;;
58842;SDS011;44614;54.356;10.100;2022-12-07T04:42:10;16.63;;;6.47;;
58842;SDS011;44614;54.356;10.100;2022-12-07T04:44:37;17.25;;;6.43;;
58842;SDS011;44614;54.356;10.100;2022-12-07T04:47:03;16.23;;;6.90;;
58842;SDS011;44614;54.356;10.100;2022-12-07T04:49:29;15.93;;;6.50;;
58842;SDS011;44614;54.356;10.100;2022-12-07T04:51:54;15.15;;;5.72;;
58842;SDS011;44614;54.356;10.100;2022-12-07T04:54:20;14.05;;;5.97;;
58842;SDS011;44614;54.356;10.100;2022-12-07T04:56:45;15.23;;;6.78;;
58842;SDS011;44614;54.356;10.100;2022-12-07T04:59:11;17.77;;;7.85;;
58842;SDS011;44614;54.356;10.100;2022-12-07T05:01:37;12.50;;;5.97;;
58842;SDS011;44614;54.356;10.100;2022-12-07T05:04:03;12.48;;;6.78;;
58842;SDS011;44614;54.356;10.100;2022-12-07T05:06:28;11.52;;;6.60;;
58842;SDS011;44614;54.356;10.100;2022-12-07T05:08:54;18.93;;;7.07;;
58842;SDS011;44614;54.356;10.100;2022-12-07T05:11:19;13.20;;;5.80;;
58842;SDS011;44614;54.356;10.100;2022-12-07T05:14:03;16.20;;;7.10;;
58842;SDS011;44614;54.356;10.100;2022-12-07T05:16:39;13.50;;;6.13;;
58842;SDS011;44614;54.356;10.100;2022-12-07T05:19:06;16.30;;;6.33;;
58842;SDS011;44614;54.356;10.100;2022-12-07T05:21:31;19.38;;;8.15;;
58842;SDS011;44614;54.356;10.100;2022-12-07T05:23:57;12.95;;;5.57;;
58842;SDS011;44614;54.356;10.100;2022-12-07T05:26:22;13.07;;;6.33;;
58842;SDS011;44614;54.356;10.100;2022-12-07T05:28:51;13.63;;;6.10;;
58842;SDS011;44614;54.356;10.100;2022-12-07T05:31:18;15.35;;;6.80;;
58842;SDS011;44614;54.356;10.100;2022-12-07T05:33:44;15.73;;;6.80;;
58842;SDS011;44614;54.356;10.100;2022-12-07T05:36:09;14.52;;;7.07;;
58842;SDS011;44614;54.356;10.100;2022-12-07T05:38:34;15.77;;;5.33;;
58842;SDS011;44614;54.356;10.100;2022-12-07T05:41:03;13.02;;;6.47;;
58842;SDS011;44614;54.356;10.100;2022-12-07T05:43:30;15.43;;;7.90;;
58842;SDS011;44614;54.356;10.100;2022-12-07T05:45:56;18.60;;;7.60;;
58842;SDS011;44614;54.356;10.100;2022-12-07T05:48:22;19.00;;;7.30;;
58842;SDS011;44614;54.356;10.100;2022-12-07T05:50:48;15.80;;;7.10;;
58842;SDS011;44614;54.356;10.100;2022-12-07T05:53:14;15.98;;;6.45;;
58842;SDS011;44614;54.356;10.100;2022-12-07T05:55:40;13.95;;;5.85;;
58842;SDS011;44614;54.356;10.100;2022-12-07T05:58:05;12.63;;;5.68;;
58842;SDS011;44614;54.356;10.100;2022-12-07T06:00:49;14.50;;;5.97;;
58842;SDS011;44614;54.356;10.100;2022-12-07T06:03:14;15.30;;;6.78;;
58842;SDS011;44614;54.356;10.100;2022-12-07T06:05:40;11.63;;;5.72;;
58842;SDS011;44614;54.356;10.100;2022-12-07T06:08:05;12.67;;;5.60;;
58842;SDS011;44614;54.356;10.100;2022-12-07T06:10:30;41.08;;;27.17;;
58842;SDS011;44614;54.356;10.100;2022-12-07T06:12:56;16.58;;;10.48;;
58842;SDS011;44614;54.356;10.100;2022-12-07T06:15:21;17.75;;;10.68;;
58842;SDS011;44614;54.356;10.100;2022-12-07T06:17:47;13.50;;;7.97;;
58842;SDS011;44614;54.356;10.100;2022-12-07T06:20:13;11.90;;;6.22;;
58842;SDS011;44614;54.356;10.100;2022-12-07T06:22:38;15.32;;;6.07;;
58842;SDS011;44614;54.356;10.100;2022-12-07T06:25:04;12.97;;;6.30;;
58842;SDS011;44614;54.356;10.100;2022-12-07T06:27:29;13.15;;;6.18;;
58842;SDS011;44614;54.356;10.100;2022-12-07T06:29:54;11.60;;;5.22;;
58842;SDS011;44614;54.356;10.100;2022-12-07T06:32:20;10.67;;;5.03;;
58842;SDS011;44614;54.356;10.100;2022-12-07T06:34:45;13.95;;;5.65;;
58842;SDS011;44614;54.356;10.100;2022-12-07T06:37:12;12.35;;;5.15;;
58842;SDS011;44614;54.356;10.100;2022-12-07T06:39:37;10.73;;;4.72;;
58842;SDS011;44614;54.356;10.100;2022-12-07T06:42:03;19.27;;;6.20;;
58842;SDS011;44614;54.356;10.100;2022-12-07T06:44:29;10.75;;;5.38;;
58842;SDS011;44614;54.356;10.100;2022-12-07T06:46:54;7.88;;;4.22;;
58842;SDS011;44614;54.356;10.100;2022-12-07T06:49:20;9.77;;;5.10;;
58842;SDS011;44614;54.356;10.100;2022-12-07T06:51:45;11.25;;;5.05;;
58842;SDS011;44614;54.356;10.100;2022-12-07T06:54:11;11.70;;;4.68;;
58842;SDS011;44614;54.356;10.100;2022-12-07T06:56:38;10.57;;;5.38;;
58842;SDS011;44614;54.356;10.100;2022-12-07T06:59:03;16.95;;;6.45;;
58842;SDS011;44614;54.356;10.100;2022-12-07T07:01:30;12.57;;;4.75;;
58842;SDS011;44614;54.356;10.100;2022-12-07T07:03:56;9.68;;;4.57;;
58842;SDS011;44614;54.356;10.100;2022-12-07T07:06:21;6.47;;;3.60;;
58842;SDS011;44614;54.356;10.100;2022-12-07T07:08:46;10.43;;;4.83;;
58842;SDS011;44614;54.356;10.100;2022-12-07T07:11:13;12.35;;;4.50;;
58842;SDS011;44614;54.356;10.100;2022-12-07T07:13:38;7.90;;;4.93;;
58842;SDS011;44614;54.356;10.100;2022-12-07T07:16:04;9.23;;;3.72;;
58842;SDS011;44614;54.356;10.100;2022-12-07T07:18:30;9.70;;;3.88;;
58842;SDS011;44614;54.356;10.100;2022-12-07T07:20:56;10.48;;;4.47;;
58842;SDS011;44614;54.356;10.100;2022-12-07T07:23:21;11.35;;;4.75;;
58842;SDS011;44614;54.356;10.100;2022-12-07T07:25:47;8.07;;;3.45;;
58842;SDS011;44614;54.356;10.100;2022-12-07T07:28:13;8.57;;;4.45;;
58842;SDS011;44614;54.356;10.100;2022-12-07T07:30:39;12.10;;;4.20;;
58842;SDS011;44614;54.356;10.100;2022-12-07T07:33:05;13.90;;;4.45;;
58842;SDS011;44614;54.356;10.100;2022-12-07T07:35:31;10.40;;;4.82;;
58842;SDS011;44614;54.356;10.100;2022-12-07T07:37:58;8.80;;;4.25;;
58842;SDS011;44614;54.356;10.100;2022-12-07T07:40:23;9.23;;;4.85;;
58842;SDS011;44614;54.356;10.100;2022-12-07T07:42:49;12.43;;;4.72;;
58842;SDS011;44614;54.356;10.100;2022-12-07T07:45:16;10.68;;;4.15;;
58842;SDS011;44614;54.356;10.100;2022-12-07T07:47:41;8.18;;;3.85;;
58842;SDS011;44614;54.356;10.100;2022-12-07T07:50:07;13.98;;;4.72;;
58842;SDS011;44614;54.356;10.100;2022-12-07T07:52:33;11.05;;;4.55;;
58842;SDS011;44614;54.356;10.100;2022-12-07T07:54:58;8.57;;;3.42;;
58842;SDS011;44614;54.356;10.100;2022-12-07T07:57:23;14.15;;;5.32;;
58842;SDS011;44614;54.356;10.100;2022-12-07T07:59:49;10.52;;;4.30;;
58842;SDS011;44614;54.356;10.100;2022-12-07T08:02:15;11.15;;;4.68;;
58842;SDS011;44614;54.356;10.100;2022-12-07T08:04:42;10.15;;;4.60;;
58842;SDS011;44614;54.356;10.100;2022-12-07T08:07:08;13.18;;;5.38;;
58842;SDS011;44614;54.356;10.100;2022-12-07T08:09:33;11.52;;;4.15;;
58842;SDS011;44614;54.356;10.100;2022-12-07T08:11:59;12.00;;;4.32;;
58842;SDS011;44614;54.356;10.100;2022-12-07T08:14:24;10.07;;;4.43;;
58842;SDS011;44614;54.356;10.100;2022-12-07T08:16:50;9.10;;;4.00;;
58842;SDS011;44614;54.356;10.100;2022-12-07T08:19:15;12.37;;;4.77;;
58842;SDS011;44614;54.356;10.100;2022-12-07T08:21:41;9.23;;;4.18;;
58842;SDS011;44614;54.356;10.100;2022-12-07T08:24:06;10.98;;;4.38;;
58842;SDS011;44614;54.356;10.100;2022-12-07T08:26:32;11.90;;;5.38;;
58842;SDS011;44614;54.356;10.100;2022-12-07T08:31:46;14.23;;;5.15;;
58842;SDS011;44614;54.356;10.100;2022-12-07T08:34:12;17.98;;;7.70;;
58842;SDS011;44614;54.356;10.100;2022-12-07T08:36:38;14.73;;;5.22;;
58842;SDS011;44614;54.356;10.100;2022-12-07T08:39:04;14.23;;;6.57;;
58842;SDS011;44614;54.356;10.100;2022-12-07T08:41:29;9.00;;;5.82;;
58842;SDS011;44614;54.356;10.100;2022-12-07T08:43:55;13.98;;;5.25;;
58842;SDS011;44614;54.356;10.100;2022-12-07T08:46:21;10.25;;;4.15;;
58842;SDS011;44614;54.356;10.100;2022-12-07T08:49:05;7.35;;;2.95;;
58842;SDS011;44614;54.356;10.100;2022-12-07T08:51:32;7.07;;;3.45;;
58842;SDS011;44614;54.356;10.100;2022-12-07T08:53:58;10.20;;;3.08;;
58842;SDS011;44614;54.356;10.100;2022-12-07T08:56:26;10.02;;;3.20;;
58842;SDS011;44614;54.356;10.100;2022-12-07T08:58:52;9.20;;;4.00;;
58842;SDS011;44614;54.356;10.100;2022-12-07T09:01:18;8.88;;;3.25;;
58842;SDS011;44614;54.356;10.100;2022-12-07T09:03:43;5.03;;;2.90;;
58842;SDS011;44614;54.356;10.100;2022-12-07T09:06:08;6.57;;;2.92;;
58842;SDS011;44614;54.356;10.100;2022-12-07T09:08:39;8.75;;;2.50;;
58842;SDS011;44614;54.356;10.100;2022-12-07T09:11:07;8.82;;;2.85;;
58842;SDS011;44614;54.356;10.100;2022-12-07T09:13:32;11.45;;;2.72;;
58842;SDS011;44614;54.356;10.100;2022-12-07T09:15:58;4.95;;;1.67;;
58842;SDS011;44614;54.356;10.100;2022-12-07T09:18:23;3.15;;;2.05;;
58842;SDS011;44614;54.356;10.100;2022-12-07T09:20:49;2.75;;;1.33;;
58842;SDS011;44614;54.356;10.100;2022-12-07T09:23:15;9.30;;;1.77;;
58842;SDS011;44614;54.356;10.100;2022-12-07T09:25:40;5.57;;;2.03;;
58842;SDS011;44614;54.356;10.100;2022-12-07T09:28:05;3.20;;;1.08;;
58842;SDS011;44614;54.356;10.100;2022-12-07T09:30:31;8.18;;;2.20;;
58842;SDS011;44614;54.356;10.100;2022-12-07T09:32:56;2.25;;;1.40;;
58842;SDS011;44614;54.356;10.100;2022-12-07T09:35:22;7.32;;;1.42;;
58842;SDS011;44614;54.356;10.100;2022-12-07T09:37:48;3.28;;;1.23;;
58842;SDS011;44614;54.356;10.100;2022-12-07T09:40:14;3.67;;;0.85;;
58842;SDS011;44614;54.356;10.100;2022-12-07T09:42:42;2.78;;;1.77;;
58842;SDS011;44614;54.356;10.100;2022-12-07T09:45:14;5.05;;;1.13;;
58842;SDS011;44614;54.356;10.100;2022-12-07T09:47:43;2.03;;;0.77;;
58842;SDS011;44614;54.356;10.100;2022-12-07T09:50:13;4.40;;;1.17;;
58842;SDS011;44614;54.356;10.100;2022-12-07T09:52:45;2.75;;;0.68;;
58842;SDS011;44614;54.356;10.100;2022-12-07T09:55:13;2.28;;;0.90;;
58842;SDS011;44614;54.356;10.100;2022-12-07T09:57:41;8.15;;;1.38;;
58842;SDS011;44614;54.356;10.100;2022-12-07T10:00:18;4.88;;;0.82;;
58842;SDS011;44614;54.356;10.100;2022-12-07T10:02:47;3.58;;;0.98;;
58842;SDS011;44614;54.356;10.100;2022-12-07T10:08:05;6.10;;;1.42;;
58842;SDS011;44614;54.356;10.100;2022-12-07T10:10:33;1.33;;;0.70;;
58842;SDS011;44614;54.356;10.100;2022-12-07T10:13:01;0.75;;;0.50;;
58842;SDS011;44614;54.356;10.100;2022-12-07T10:18:17;5.05;;;1.10;;
58842;SDS011;44614;54.356;10.100;2022-12-07T10:20:45;1.55;;;0.70;;
58842;SDS011;44614;54.356;10.100;2022-12-07T10:23:16;4.28;;;0.82;;
58842;SDS011;44614;54.356;10.100;2022-12-07T10:25:43;2.22;;;0.73;;
58842;SDS011;44614;54.356;10.100;2022-12-07T10:33:36;2.25;;;0.80;;
58842;SDS011;44614;54.356;10.100;2022-12-07T10:38:48;1.13;;;0.50;;
58842;SDS011;44614;54.356;10.100;2022-12-07T10:41:18;4.25;;;0.93;;
58842;SDS011;44614;54.356;10.100;2022-12-07T10:43:49;1.30;;;0.70;;
58842;SDS011;44614;54.356;10.100;2022-12-07T10:54:28;2.15;;;0.50;;
58842;SDS011;44614;54.356;10.100;2022-12-07T11:10:43;0.90;;;0.50;;
58842;SDS011;44614;54.356;10.100;2022-12-07T11:13:33;2.92;;;0.73;;
58842;SDS011;44614;54.356;10.100;2022-12-07T11:16:19;1.27;;;0.60;;
58842;SDS011;44614;54.356;10.100;2022-12-07T11:30:08;0.40;;;0.40;;
58842;SDS011;44614;54.356;10.100;2022-12-07T11:35:22;4.43;;;0.60;;
58842;SDS011;44614;54.356;10.100;2022-12-07T11:37:59;0.45;;;0.45;;
58842;SDS011;44614;54.356;10.100;2022-12-07T11:40:35;3.22;;;0.60;;
58842;SDS011;44614;54.356;10.100;2022-12-07T11:43:13;2.72;;;0.80;;
58842;SDS011;44614;54.356;10.100;2022-12-07T11:45:46;1.98;;;0.30;;
58842;SDS011;44614;54.356;10.100;2022-12-07T11:48:50;0.65;;;0.47;;
58842;SDS011;44614;54.356;10.100;2022-12-07T11:51:11;2.08;;;0.80;;
58842;SDS011;44614;54.356;10.100;2022-12-07T11:53:45;1.27;;;0.90;;
58842;SDS011;44614;54.356;10.100;2022-12-07T12:03:40;1.95;;;0.35;;
58842;SDS011;44614;54.356;10.100;2022-12-07T12:06:08;4.28;;;0.70;;
58842;SDS011;44614;54.356;10.100;2022-12-07T12:08:36;3.20;;;0.20;;
58842;SDS011;44614;54.356;10.100;2022-12-07T12:16:39;4.38;;;0.60;;
58842;SDS011;44614;54.356;10.100;2022-12-07T12:19:30;1.67;;;0.70;;
58842;SDS011;44614;54.356;10.100;2022-12-07T12:22:10;4.70;;;0.68;;
58842;SDS011;44614;54.356;10.100;2022-12-07T12:24:37;1.80;;;0.50;;
58842;SDS011;44614;54.356;10.100;2022-12-07T12:27:07;2.38;;;0.40;;
58842;SDS011;44614;54.356;10.100;2022-12-07T12:29:36;0.25;;;0.25;;
58842;SDS011;44614;54.356;10.100;2022-12-07T12:32:49;0.85;;;0.50;;
58842;SDS011;44614;54.356;10.100;2022-12-07T12:35:21;1.88;;;0.43;;
58842;SDS011;44614;54.356;10.100;2022-12-07T12:40:52;0.50;;;0.40;;
58842;SDS011;44614;54.356;10.100;2022-12-07T12:51:46;9.00;;;0.98;;
58842;SDS011;44614;54.356;10.100;2022-12-07T12:59:28;1.33;;;0.35;;
58842;SDS011;44614;54.356;10.100;2022-12-07T13:01:55;2.33;;;0.40;;
58842;SDS011;44614;54.356;10.100;2022-12-07T13:12:57;2.40;;;0.40;;
58842;SDS011;44614;54.356;10.100;2022-12-07T13:18:02;1.95;;;0.50;;
58842;SDS011;44614;54.356;10.100;2022-12-07T13:28:38;1.65;;;0.40;;
58842;SDS011;44614;54.356;10.100;2022-12-07T13:33:44;0.57;;;0.50;;
58842;SDS011;44614;54.356;10.100;2022-12-07T13:36:18;1.65;;;0.45;;
58842;SDS011;44614;54.356;10.100;2022-12-07T13:38:59;0.20;;;0.20;;
58842;SDS011;44614;54.356;10.100;2022-12-07T13:41:34;1.52;;;0.57;;
58842;SDS011;44614;54.356;10.100;2022-12-07T13:44:05;0.98;;;0.50;;
58842;SDS011;44614;54.356;10.100;2022-12-07T13:49:19;0.80;;;0.35;;
58842;SDS011;44614;54.356;10.100;2022-12-07T13:51:47;1.17;;;0.60;;
58842;SDS011;44614;54.356;10.100;2022-12-07T13:54:13;1.88;;;0.40;;
58842;SDS011;44614;54.356;10.100;2022-12-07T13:56:39;2.60;;;0.73;;
58842;SDS011;44614;54.356;10.100;2022-12-07T13:59:19;2.15;;;1.08;;
58842;SDS011;44614;54.356;10.100;2022-12-07T14:01:48;0.77;;;0.50;;
58842;SDS011;44614;54.356;10.100;2022-12-07T14:04:31;2.72;;;0.70;;
58842;SDS011;44614;54.356;10.100;2022-12-07T14:07:01;1.92;;;0.77;;
58842;SDS011;44614;54.356;10.100;2022-12-07T14:09:52;2.30;;;1.15;;
58842;SDS011;44614;54.356;10.100;2022-12-07T14:12:20;2.67;;;0.97;;
58842;SDS011;44614;54.356;10.100;2022-12-07T14:14:46;0.63;;;0.50;;
58842;SDS011;44614;54.356;10.100;2022-12-07T14:17:20;0.95;;;0.63;;
58842;SDS011;44614;54.356;10.100;2022-12-07T14:19:49;1.38;;;0.73;;
58842;SDS011;44614;54.356;10.100;2022-12-07T14:22:19;5.50;;;0.95;;
58842;SDS011;44614;54.356;10.100;2022-12-07T14:24:47;1.52;;;1.00;;
58842;SDS011;44614;54.356;10.100;2022-12-07T14:27:16;2.40;;;1.10;;
58842;SDS011;44614;54.356;10.100;2022-12-07T14:29:43;2.13;;;0.80;;
58842;SDS011;44614;54.356;10.100;2022-12-07T14:34:59;2.85;;;0.90;;
58842;SDS011;44614;54.356;10.100;2022-12-07T14:37:35;1.58;;;0.60;;
58842;SDS011;44614;54.356;10.100;2022-12-07T14:40:02;1.45;;;0.60;;
58842;SDS011;44614;54.356;10.100;2022-12-07T14:42:28;2.42;;;0.75;;
58842;SDS011;44614;54.356;10.100;2022-12-07T14:44:56;2.47;;;0.70;;
58842;SDS011;44614;54.356;10.100;2022-12-07T14:47:23;0.63;;;0.55;;
58842;SDS011;44614;54.356;10.100;2022-12-07T14:49:49;3.72;;;0.77;;
58842;SDS011;44614;54.356;10.100;2022-12-07T14:52:21;2.53;;;0.77;;
58842;SDS011;44614;54.356;10.100;2022-12-07T14:54:49;1.13;;;0.60;;
58842;SDS011;44614;54.356;10.100;2022-12-07T14:57:15;0.98;;;0.65;;
58842;SDS011;44614;54.356;10.100;2022-12-07T14:59:40;2.88;;;0.70;;
58842;SDS011;44614;54.356;10.100;2022-12-07T15:02:06;0.68;;;0.68;;
58842;SDS011;44614;54.356;10.100;2022-12-07T15:04:32;1.60;;;0.87;;
58842;SDS011;44614;54.356;10.100;2022-12-07T15:06:58;4.10;;;1.15;;
58842;SDS011;44614;54.356;10.100;2022-12-07T15:09:25;1.70;;;0.90;;
58842;SDS011;44614;54.356;10.100;2022-12-07T15:11:51;2.15;;;1.17;;
58842;SDS011;44614;54.356;10.100;2022-12-07T15:14:16;3.75;;;1.55;;
58842;SDS011;44614;54.356;10.100;2022-12-07T15:16:42;4.25;;;2.45;;
58842;SDS011;44614;54.356;10.100;2022-12-07T15:19:15;3.92;;;1.70;;
58842;SDS011;44614;54.356;10.100;2022-12-07T15:21:43;2.05;;;1.45;;
58842;SDS011;44614;54.356;10.100;2022-12-07T15:24:10;3.65;;;1.63;;
58842;SDS011;44614;54.356;10.100;2022-12-07T15:29:02;3.97;;;1.52;;
58842;SDS011;44614;54.356;10.100;2022-12-07T15:31:27;3.15;;;1.35;;
58842;SDS011;44614;54.356;10.100;2022-12-07T15:33:53;2.22;;;1.27;;
58842;SDS011;44614;54.356;10.100;2022-12-07T15:36:22;3.05;;;1.45;;
58842;SDS011;44614;54.356;10.100;2022-12-07T15:38:50;2.78;;;1.67;;
58842;SDS011;44614;54.356;10.100;2022-12-07T15:41:16;3.67;;;1.50;;
58842;SDS011;44614;54.356;10.100;2022-12-07T15:43:42;3.00;;;1.63;;
58842;SDS011;44614;54.356;10.100;2022-12-07T15:46:30;2.15;;;1.40;;
58842;SDS011;44614;54.356;10.100;2022-12-07T15:48:56;3.78;;;3.33;;
58842;SDS011;44614;54.356;10.100;2022-12-07T15:51:22;3.47;;;1.75;;
58842;SDS011;44614;54.356;10.100;2022-12-07T15:53:47;1.70;;;1.58;;
58842;SDS011;44614;54.356;10.100;2022-12-07T15:56:12;4.55;;;2.30;;
58842;SDS011;44614;54.356;10.100;2022-12-07T15:58:38;4.38;;;2.20;;
58842;SDS011;44614;54.356;10.100;2022-12-07T16:01:09;4.03;;;2.37;;
58842;SDS011;44614;54.356;10.100;2022-12-07T16:03:38;3.47;;;1.77;;
58842;SDS011;44614;54.356;10.100;2022-12-07T16:06:04;3.17;;;2.15;;
58842;SDS011;44614;54.356;10.100;2022-12-07T16:08:30;4.95;;;2.40;;
58842;SDS011;44614;54.356;10.100;2022-12-07T16:10:55;4.18;;;2.35;;
58842;SDS011;44614;54.356;10.100;2022-12-07T16:13:20;3.70;;;1.90;;
58842;SDS011;44614;54.356;10.100;2022-12-07T16:15:46;7.43;;;3.08;;
58842;SDS011;44614;54.356;10.100;2022-12-07T16:18:11;4.25;;;2.25;;
58842;SDS011;44614;54.356;10.100;2022-12-07T16:20:37;7.15;;;3.30;;
58842;SDS011;44614;54.356;10.100;2022-12-07T16:23:02;4.40;;;2.40;;
58842;SDS011;44614;54.356;10.100;2022-12-07T16:25:28;3.40;;;2.13;;
58842;SDS011;44614;54.356;10.100;2022-12-07T16:27:53;4.20;;;2.10;;
58842;SDS011;44614;54.356;10.100;2022-12-07T16:30:18;3.20;;;1.80;;
58842;SDS011;44614;54.356;10.100;2022-12-07T16:32:44;4.13;;;1.95;;
58842;SDS011;44614;54.356;10.100;2022-12-07T16:35:10;5.68;;;2.00;;
58842;SDS011;44614;54.356;10.100;2022-12-07T16:37:36;4.05;;;1.85;;
58842;SDS011;44614;54.356;10.100;2022-12-07T16:40:01;5.00;;;2.28;;
58842;SDS011;44614;54.356;10.100;2022-12-07T16:42:30;6.70;;;2.78;;
58842;SDS011;44614;54.356;10.100;2022-12-07T16:44:57;5.85;;;2.83;;
58842;SDS011;44614;54.356;10.100;2022-12-07T16:47:22;5.20;;;1.95;;
58842;SDS011;44614;54.356;10.100;2022-12-07T16:49:48;4.07;;;2.00;;
58842;SDS011;44614;54.356;10.100;2022-12-07T16:52:13;4.70;;;2.15;;
58842;SDS011;44614;54.356;10.100;2022-12-07T16:54:38;3.78;;;2.53;;
58842;SDS011;44614;54.356;10.100;2022-12-07T16:57:04;6.22;;;3.35;;
58842;SDS011;44614;54.356;10.100;2022-12-07T16:59:29;3.53;;;2.60;;
58842;SDS011;44614;54.356;10.100;2022-12-07T17:01:55;3.90;;;2.30;;